Time;durP1;ratioP1;P1;durP2;ratioP2;P2;SDS_P1;SDS_P2;PMS_P1;PMS_P2;Temp;Humidity;BMP_temperature;BMP_pressure;BME280_temperature;BME280_humidity;BME280_pressure;Samples;Min_cycle;Max_cycle;Signal;HPM_P1;HPM_P2
2022/11/29 00:01:16;;;;;;;0.00;0.00;;;;;;;;;;6212324;23;20031;-88
2022/11/29 00:03:42;;;;;;;0.00;0.00;;;;;;;;;;6211004;23;20648;-89
2022/11/29 00:06:12;;;;;;;0.00;0.00;;;;;;;;;;6212952;23;20022;-88
2022/11/29 00:08:40;;;;;;;0.00;0.00;;;;;;;;;;6212427;23;20012;-88
2022/11/29 00:11:06;;;;;;;0.00;0.00;;;;;;;;;;6214355;23;20004;-88
2022/11/29 00:13:33;;;;;;;0.00;0.00;;;;;;;;;;6211810;23;20099;-88
2022/11/29 00:16:03;;;;;;;0.00;0.00;;;;;;;;;;6214237;23;20011;-88
2022/11/29 00:18:29;;;;;;;0.00;0.00;;;;;;;;;;6209019;23;20428;-88
2022/11/29 00:20:55;;;;;;;0.00;0.00;;;;;;;;;;6214302;23;20043;-88
2022/11/29 00:23:21;;;;;;;0.00;0.00;;;;;;;;;;6212303;23;20231;-88
2022/11/29 00:25:47;;;;;;;0.00;0.00;;;;;;;;;;6212875;23;20491;-88
2022/11/29 00:28:13;;;;;;;0.00;0.00;;;;;;;;;;6213378;23;20019;-88
2022/11/29 00:30:39;;;;;;;0.00;0.00;;;;;;;;;;6239614;23;20011;-88
2022/11/29 00:33:05;;;;;;;3.10;1.10;;;;;;;;;;6212168;23;20091;-88
2022/11/29 00:35:31;;;;;;;0.00;0.00;;;;;;;;;;6211995;23;20436;-88
2022/11/29 00:37:57;;;;;;;0.00;0.00;;;;;;;;;;6212876;23;20008;-89
2022/11/29 00:40:24;;;;;;;0.00;0.00;;;;;;;;;;6211548;23;20008;-88
2022/11/29 00:42:50;;;;;;;0.75;0.45;;;;;;;;;;6212950;23;20095;-89
2022/11/29 00:45:16;;;;;;;0.00;0.00;;;;;;;;;;6212263;23;20008;-88
2022/11/29 00:47:42;;;;;;;0.00;0.00;;;;;;;;;;6212768;23;20008;-88
2022/11/29 00:50:08;;;;;;;0.00;0.00;;;;;;;;;;6213102;23;20012;-89
2022/11/29 00:52:34;;;;;;;0.00;0.00;;;;;;;;;;6211816;22;20013;-89
2022/11/29 00:55:00;;;;;;;0.00;0.00;;;;;;;;;;6211751;23;20112;-88
2022/11/29 00:57:26;;;;;;;0.00;0.00;;;;;;;;;;6212908;23;20016;-88
2022/11/29 00:59:52;;;;;;;0.40;0.40;;;;;;;;;;6213490;23;20012;-89
2022/11/29 01:02:18;;;;;;;0.00;0.00;;;;;;;;;;6211779;23;20036;-89
2022/11/29 01:04:44;;;;;;;0.10;0.10;;;;;;;;;;6212522;23;20004;-88
2022/11/29 01:07:10;;;;;;;0.00;0.00;;;;;;;;;;6212637;23;20016;-89
2022/11/29 01:09:36;;;;;;;0.00;0.00;;;;;;;;;;6213485;23;20015;-89
2022/11/29 01:12:02;;;;;;;0.00;0.00;;;;;;;;;;6211553;23;20019;-89
2022/11/29 01:14:28;;;;;;;0.80;0.80;;;;;;;;;;6212295;23;20559;-89
2022/11/29 01:16:54;;;;;;;0.00;0.00;;;;;;;;;;6211235;23;20458;-89
2022/11/29 01:19:20;;;;;;;0.57;0.47;;;;;;;;;;6213881;23;20008;-88
2022/11/29 01:21:46;;;;;;;0.00;0.00;;;;;;;;;;6212973;23;20000;-88
2022/11/29 01:24:12;;;;;;;0.00;0.00;;;;;;;;;;6211971;23;20008;-88
2022/11/29 01:26:38;;;;;;;0.00;0.00;;;;;;;;;;6211711;23;20012;-88
2022/11/29 01:29:04;;;;;;;0.00;0.00;;;;;;;;;;6212795;23;20008;-87
2022/11/29 01:31:32;;;;;;;0.00;0.00;;;;;;;;;;6211838;23;20020;-88
2022/11/29 01:34:00;;;;;;;0.00;0.00;;;;;;;;;;6211447;23;20015;-89
2022/11/29 01:36:27;;;;;;;0.00;0.00;;;;;;;;;;6208192;23;20428;-89
2022/11/29 01:38:53;;;;;;;0.10;0.10;;;;;;;;;;6212463;23;20000;-90
2022/11/29 01:41:20;;;;;;;0.98;0.85;;;;;;;;;;6206663;23;20193;-90
2022/11/29 01:43:59;;;;;;;0.00;0.00;;;;;;;;;;6211059;23;20011;-88
2022/11/29 01:46:25;;;;;;;0.13;0.13;;;;;;;;;;6237409;23;20011;-88
2022/11/29 01:48:53;;;;;;;0.08;0.08;;;;;;;;;;6213156;23;20012;-88
2022/11/29 01:51:19;;;;;;;1.88;1.17;;;;;;;;;;6237285;23;20005;-88
2022/11/29 01:53:45;;;;;;;0.00;0.00;;;;;;;;;;6238956;23;20865;-88
2022/11/29 01:56:13;;;;;;;0.00;0.00;;;;;;;;;;6209314;23;20015;-88
2022/11/29 01:58:40;;;;;;;0.00;0.00;;;;;;;;;;6213423;23;20030;-89
2022/11/29 02:01:06;;;;;;;0.20;0.20;;;;;;;;;;6212460;23;21022;-88
2022/11/29 02:03:32;;;;;;;0.68;0.65;;;;;;;;;;6212562;23;20667;-88
2022/11/29 02:05:58;;;;;;;0.00;0.00;;;;;;;;;;6211322;23;20016;-89
2022/11/29 02:08:38;;;;;;;0.00;0.00;;;;;;;;;;6211958;23;20750;-89
2022/11/29 02:11:19;;;;;;;0.00;0.00;;;;;;;;;;6239510;23;20034;-88
2022/11/29 02:14:04;;;;;;;0.00;0.00;;;;;;;;;;6209559;23;20322;-89
2022/11/29 02:16:45;;;;;;;0.10;0.10;;;;;;;;;;6210533;23;20398;-88
2022/11/29 02:19:22;;;;;;;0.00;0.00;;;;;;;;;;6211536;23;20321;-88
2022/11/29 02:21:55;;;;;;;0.00;0.00;;;;;;;;;;6211830;23;20004;-89
2022/11/29 02:24:47;;;;;;;0.00;0.00;;;;;;;;;;6211064;23;20010;-88
2022/11/29 02:27:16;;;;;;;0.00;0.00;;;;;;;;;;6211804;23;20008;-88
2022/11/29 02:30:01;;;;;;;1.55;0.28;;;;;;;;;;6237604;23;20175;-89
2022/11/29 02:32:53;;;;;;;0.00;0.00;;;;;;;;;;6234737;23;20007;-89
2022/11/29 02:35:22;;;;;;;0.00;0.00;;;;;;;;;;6203152;23;20595;-89
2022/11/29 02:37:54;;;;;;;0.00;0.00;;;;;;;;;;6209064;23;20000;-88
2022/11/29 02:40:20;;;;;;;0.00;0.00;;;;;;;;;;6210350;23;20018;-88
2022/11/29 02:42:49;;;;;;;2.03;1.45;;;;;;;;;;6208455;23;20087;-88
2022/11/29 02:45:25;;;;;;;0.00;0.00;;;;;;;;;;6211575;23;20090;-88
2022/11/29 02:48:01;;;;;;;0.00;0.00;;;;;;;;;;6211346;23;20083;-88
2022/11/29 02:50:38;;;;;;;0.00;0.00;;;;;;;;;;6235717;23;20474;-89
2022/11/29 02:53:07;;;;;;;0.00;0.00;;;;;;;;;;6238207;23;20630;-89
2022/11/29 02:55:33;;;;;;;0.10;0.10;;;;;;;;;;6208861;23;20648;-89
2022/11/29 02:58:03;;;;;;;0.00;0.00;;;;;;;;;;6210077;23;20011;-89
2022/11/29 03:00:29;;;;;;;0.00;0.00;;;;;;;;;;6212689;23;20432;-88
2022/11/29 03:03:13;;;;;;;0.00;0.00;;;;;;;;;;6206805;23;20012;-89
2022/11/29 03:05:47;;;;;;;0.00;0.00;;;;;;;;;;6204515;23;20198;-89
2022/11/29 03:08:22;;;;;;;0.00;0.00;;;;;;;;;;6208616;23;20004;-89
2022/11/29 03:11:09;;;;;;;0.00;0.00;;;;;;;;;;6211367;23;20004;-89
2022/11/29 03:13:38;;;;;;;0.00;0.00;;;;;;;;;;6208772;23;20036;-89
2022/11/29 03:16:19;;;;;;;0.00;0.00;;;;;;;;;;6208329;23;20046;-89
2022/11/29 03:18:54;;;;;;;0.00;0.00;;;;;;;;;;6208495;23;20012;-88
2022/11/29 03:21:45;;;;;;;0.00;0.00;;;;;;;;;;6204891;23;20008;-89
2022/11/29 03:24:25;;;;;;;0.00;0.00;;;;;;;;;;6210053;23;20035;-88
2022/11/29 03:26:54;;;;;;;0.00;0.00;;;;;;;;;;6209468;23;20069;-88
2022/11/29 03:29:28;;;;;;;0.00;0.00;;;;;;;;;;6208827;23;20801;-89
2022/11/29 03:32:03;;;;;;;0.00;0.00;;;;;;;;;;6210509;23;20016;-87
2022/11/29 03:34:36;;;;;;;0.00;0.00;;;;;;;;;;6209644;23;20046;-88
2022/11/29 03:37:10;;;;;;;0.08;0.08;;;;;;;;;;6209687;23;20444;-89
2022/11/29 03:39:41;;;;;;;0.15;0.15;;;;;;;;;;6210167;23;20395;-89
2022/11/29 03:42:27;;;;;;;0.00;0.00;;;;;;;;;;6212879;23;20011;-88
2022/11/29 03:44:58;;;;;;;0.00;0.00;;;;;;;;;;6230235;23;20016;-89
2022/11/29 03:47:27;;;;;;;0.00;0.00;;;;;;;;;;6228822;23;20047;-89
2022/11/29 03:49:53;;;;;;;0.00;0.00;;;;;;;;;;6203065;23;20012;-89
2022/11/29 03:52:23;;;;;;;0.00;0.00;;;;;;;;;;6199756;22;20121;-89
2022/11/29 03:55:11;;;;;;;0.00;0.00;;;;;;;;;;6174845;23;20670;-89
2022/11/29 03:57:49;;;;;;;0.00;0.00;;;;;;;;;;6175154;23;20001;-89
2022/11/29 04:00:15;;;;;;;0.00;0.00;;;;;;;;;;6177715;23;20087;-89
2022/11/29 04:03:07;;;;;;;0.00;0.00;;;;;;;;;;6176726;23;20337;-89
2022/11/29 04:05:48;;;;;;;0.00;0.00;;;;;;;;;;6123020;23;20005;-89
2022/11/29 04:08:26;;;;;;;0.00;0.00;;;;;;;;;;6178690;23;20433;-89
2022/11/29 04:11:15;;;;;;;0.10;0.10;;;;;;;;;;6179131;23;20079;-89
2022/11/29 04:13:53;;;;;;;0.38;0.20;;;;;;;;;;6181878;23;20353;-89
2022/11/29 04:16:34;;;;;;;0.00;0.00;;;;;;;;;;6178301;23;20100;-88
2022/11/29 04:19:03;;;;;;;0.00;0.00;;;;;;;;;;6178895;23;20509;-89
2022/11/29 04:21:29;;;;;;;0.00;0.00;;;;;;;;;;6180002;23;20008;-89
2022/11/29 04:23:59;;;;;;;0.00;0.00;;;;;;;;;;6177901;23;20015;-89
2022/11/29 04:26:43;;;;;;;0.00;0.00;;;;;;;;;;6177406;23;20491;-89
2022/11/29 04:29:20;;;;;;;0.00;0.00;;;;;;;;;;6177765;23;20517;-89
2022/11/29 04:31:55;;;;;;;0.00;0.00;;;;;;;;;;6179602;23;20040;-88
2022/11/29 04:34:24;;;;;;;0.00;0.00;;;;;;;;;;6178299;23;20001;-89
2022/11/29 04:37:05;;;;;;;0.00;0.00;;;;;;;;;;6180349;23;20005;-89
2022/11/29 04:39:42;;;;;;;0.00;0.00;;;;;;;;;;6175623;23;20039;-89
2022/11/29 04:42:27;;;;;;;0.00;0.00;;;;;;;;;;6177842;23;20001;-89
2022/11/29 04:44:53;;;;;;;0.00;0.00;;;;;;;;;;6179389;23;20009;-89
2022/11/29 04:47:19;;;;;;;0.52;0.52;;;;;;;;;;6177390;23;20084;-89
2022/11/29 04:49:59;;;;;;;0.00;0.00;;;;;;;;;;6178166;23;20033;-89
2022/11/29 04:52:25;;;;;;;0.00;0.00;;;;;;;;;;6178357;22;20009;-89
2022/11/29 04:55:18;;;;;;;0.00;0.00;;;;;;;;;;6213537;22;20391;-89
2022/11/29 04:57:51;;;;;;;0.00;0.00;;;;;;;;;;6211944;23;20008;-88
2022/11/29 05:00:21;;;;;;;0.00;0.00;;;;;;;;;;6238927;23;20075;-89
2022/11/29 05:02:55;;;;;;;0.00;0.00;;;;;;;;;;6214615;23;20429;-90
2022/11/29 05:05:21;;;;;;;0.45;0.45;;;;;;;;;;6213437;23;20012;-88
2022/11/29 05:07:50;;;;;;;0.00;0.00;;;;;;;;;;6212609;23;20008;-89
2022/11/29 05:10:25;;;;;;;0.00;0.00;;;;;;;;;;6212068;23;20004;-88
2022/11/29 05:13:11;;;;;;;0.22;0.22;;;;;;;;;;6238131;23;20011;-89
2022/11/29 05:15:38;;;;;;;;;;;;;;;;;;6218269;23;20008;-89
2022/11/29 05:18:04;;;;;;;;;;;;;;;;;;6240700;23;19903;-89
2022/11/29 05:20:53;;;;;;;0.00;0.00;;;;;;;;;;6211533;23;19906;-89
2022/11/29 05:23:37;;;;;;;0.00;0.00;;;;;;;;;;6237322;23;20043;-89
2022/11/29 05:26:22;;;;;;;0.00;0.00;;;;;;;;;;6239775;23;20631;-89
2022/11/29 05:29:03;;;;;;;0.00;0.00;;;;;;;;;;6211115;23;20007;-91
2022/11/29 05:31:41;;;;;;;0.00;0.00;;;;;;;;;;6211730;23;20008;-89
2022/11/29 05:34:13;;;;;;;0.00;0.00;;;;;;;;;;6210380;23;20567;-90
2022/11/29 05:36:46;;;;;;;0.00;0.00;;;;;;;;;;6212230;23;20105;-90
2022/11/29 05:39:18;;;;;;;0.00;0.00;;;;;;;;;;6214683;23;20008;-90
2022/11/29 05:42:04;;;;;;;0.00;0.00;;;;;;;;;;6210430;23;20027;-90
2022/11/29 05:44:33;;;;;;;0.00;0.00;;;;;;;;;;6212207;23;20012;-89
2022/11/29 05:47:01;;;;;;;0.08;0.08;;;;;;;;;;6210947;23;20004;-90
2022/11/29 05:49:51;;;;;;;0.00;0.00;;;;;;;;;;6213552;23;20024;-90
2022/11/29 05:52:21;;;;;;;0.08;0.08;;;;;;;;;;6213030;23;20019;-90
2022/11/29 05:55:02;;;;;;;0.00;0.00;;;;;;;;;;6212081;22;20462;-90
2022/11/29 05:57:35;;;;;;;1.00;0.98;;;;;;;;;;6213074;23;20000;-90
2022/11/29 06:00:03;;;;;;;0.00;0.00;;;;;;;;;;6212345;23;20340;-90
2022/11/29 06:02:48;;;;;;;0.00;0.00;;;;;;;;;;6213724;23;20011;-90
2022/11/29 06:05:21;;;;;;;0.00;0.00;;;;;;;;;;6210199;23;20008;-90
2022/11/29 06:08:09;;;;;;;0.00;0.00;;;;;;;;;;6215088;23;20425;-90
2022/11/29 06:10:38;;;;;;;0.20;0.20;;;;;;;;;;6212721;23;20015;-90
2022/11/29 06:13:31;;;;;;;0.00;0.00;;;;;;;;;;6211499;23;20008;-91
2022/11/29 06:16:00;;;;;;;0.00;0.00;;;;;;;;;;6234994;23;20027;-90
2022/11/29 06:18:26;;;;;;;0.95;0.90;;;;;;;;;;6214664;23;20004;-90
2022/11/29 06:20:55;;;;;;;0.00;0.00;;;;;;;;;;6239340;23;20076;-90
2022/11/29 06:23:30;;;;;;;0.00;0.00;;;;;;;;;;6213505;23;20035;-90
2022/11/29 06:26:00;;;;;;;0.00;0.00;;;;;;;;;;6211795;23;20015;-90
2022/11/29 06:28:32;;;;;;;0.05;0.05;;;;;;;;;;6210431;23;20310;-91
2022/11/29 06:31:12;;;;;;;0.13;0.13;;;;;;;;;;6212920;23;20436;-90
2022/11/29 06:34:05;;;;;;;0.00;0.00;;;;;;;;;;6211282;23;20039;-90
2022/11/29 06:36:40;;;;;;;0.00;0.00;;;;;;;;;;6210196;23;20752;-90
2022/11/29 06:39:06;;;;;;;0.00;0.00;;;;;;;;;;6210427;23;20913;-90
2022/11/29 06:41:32;;;;;;;0.00;0.00;;;;;;;;;;6215405;23;20015;-90
2022/11/29 06:43:59;;;;;;;0.00;0.00;;;;;;;;;;6211320;23;20012;-91
2022/11/29 06:46:46;;;;;;;0.00;0.00;;;;;;;;;;6212229;23;20012;-89
2022/11/29 06:49:32;;;;;;;0.00;0.00;;;;;;;;;;6238682;23;20004;-89
2022/11/29 06:52:17;;;;;;;0.00;0.00;;;;;;;;;;6192867;23;20131;-90
2022/11/29 06:54:52;;;;;;;0.00;0.00;;;;;;;;;;6211969;22;20020;-90
2022/11/29 06:57:18;;;;;;;0.00;0.00;;;;;;;;;;6213318;23;20004;-90
2022/11/29 06:59:50;;;;;;;0.00;0.00;;;;;;;;;;6209333;23;20195;-89
2022/11/29 07:02:38;;;;;;;0.38;0.38;;;;;;;;;;6207318;23;20008;-91
2022/11/29 07:05:10;;;;;;;0.43;0.43;;;;;;;;;;6205033;23;20015;-90
2022/11/29 07:07:37;;;;;;;0.00;0.00;;;;;;;;;;6209457;23;20150;-90
2022/11/29 07:10:04;;;;;;;0.00;0.00;;;;;;;;;;6211593;23;20536;-90
2022/11/29 07:12:30;;;;;;;0.00;0.00;;;;;;;;;;6208284;23;20020;-90
2022/11/29 07:14:56;;;;;;;0.00;0.00;;;;;;;;;;6210213;23;20436;-90
2022/11/29 07:17:39;;;;;;;0.00;0.00;;;;;;;;;;6207740;23;20504;-90
2022/11/29 07:20:33;;;;;;;0.10;0.10;;;;;;;;;;6208978;23;20032;-89
2022/11/29 07:23:10;;;;;;;0.03;0.03;;;;;;;;;;6211154;23;20336;-90
2022/11/29 07:25:36;;;;;;;6.82;1.30;;;;;;;;;;6208665;23;20091;-90
2022/11/29 07:28:21;;;;;;;0.00;0.00;;;;;;;;;;6209023;23;20028;-91
2022/11/29 07:30:53;;;;;;;0.00;0.00;;;;;;;;;;6206740;23;20016;-90
2022/11/29 07:33:22;;;;;;;1.45;1.35;;;;;;;;;;6207776;23;20087;-90
2022/11/29 07:35:56;;;;;;;0.00;0.00;;;;;;;;;;6233716;23;20035;-90
2022/11/29 07:38:39;;;;;;;0.00;0.00;;;;;;;;;;6210294;23;20042;-90
2022/11/29 07:41:15;;;;;;;0.00;0.00;;;;;;;;;;6207577;23;20004;-90
2022/11/29 07:43:59;;;;;;;0.40;0.40;;;;;;;;;;6209800;23;20444;-90
2022/11/29 07:46:27;;;;;;;0.00;0.00;;;;;;;;;;6208520;23;20091;-90
2022/11/29 07:48:53;;;;;;;0.00;0.00;;;;;;;;;;6209991;23;20018;-90
2022/11/29 07:51:19;;;;;;;0.00;0.00;;;;;;;;;;6211323;23;20768;-91
2022/11/29 07:53:46;;;;;;;0.03;0.03;;;;;;;;;;6207989;22;20020;-90
2022/11/29 07:56:12;;;;;;;0.20;0.20;;;;;;;;;;6212251;23;20008;-90
2022/11/29 07:58:38;;;;;;;0.00;0.00;;;;;;;;;;6210944;23;20039;-90
2022/11/29 08:01:04;;;;;;;0.00;0.00;;;;;;;;;;6211162;23;20015;-90
2022/11/29 08:03:31;;;;;;;0.00;0.00;;;;;;;;;;6209710;23;20054;-90
2022/11/29 08:05:57;;;;;;;0.00;0.00;;;;;;;;;;6212606;23;20298;-91
2022/11/29 08:08:23;;;;;;;0.00;0.00;;;;;;;;;;6211412;23;20499;-90
2022/11/29 08:10:49;;;;;;;0.00;0.00;;;;;;;;;;6205810;23;20012;-90
2022/11/29 08:13:18;;;;;;;0.00;0.00;;;;;;;;;;6212690;23;20012;-90
2022/11/29 08:15:47;;;;;;;0.63;0.63;;;;;;;;;;6208280;23;20467;-90
2022/11/29 08:18:13;;;;;;;0.00;0.00;;;;;;;;;;6212238;23;20433;-90
2022/11/29 08:20:40;;;;;;;0.28;0.28;;;;;;;;;;6208693;23;20004;-91
2022/11/29 08:23:07;;;;;;;0.00;0.00;;;;;;;;;;6209727;23;20007;-91
2022/11/29 08:25:33;;;;;;;0.00;0.00;;;;;;;;;;6209489;23;20048;-90
2022/11/29 08:28:01;;;;;;;0.00;0.00;;;;;;;;;;6212133;23;20448;-90
2022/11/29 08:30:27;;;;;;;10.85;2.28;;;;;;;;;;6209810;23;20387;-90
2022/11/29 08:32:53;;;;;;;0.00;0.00;;;;;;;;;;6211855;23;20381;-90
2022/11/29 08:35:20;;;;;;;0.00;0.00;;;;;;;;;;6211472;23;20073;-90
2022/11/29 08:37:46;;;;;;;0.00;0.00;;;;;;;;;;6207207;23;20212;-91
2022/11/29 08:40:12;;;;;;;0.00;0.00;;;;;;;;;;6210588;23;20031;-90
2022/11/29 08:42:38;;;;;;;0.00;0.00;;;;;;;;;;6209711;23;20000;-90
2022/11/29 08:45:05;;;;;;;6.63;0.75;;;;;;;;;;6211546;23;20011;-90
2022/11/29 08:47:34;;;;;;;0.00;0.00;;;;;;;;;;6208546;23;20016;-88
2022/11/29 08:50:00;;;;;;;0.00;0.00;;;;;;;;;;6209701;23;20012;-88
2022/11/29 08:55:16;;;;;;;0.00;0.00;;;;;;;;;;6234236;22;20074;-88
2022/11/29 08:57:42;;;;;;;0.43;0.43;;;;;;;;;;6210185;23;20012;-88
2022/11/29 09:00:09;;;;;;;0.00;0.00;;;;;;;;;;6208592;23;20425;-89
2022/11/29 09:02:36;;;;;;;0.00;0.00;;;;;;;;;;6209670;23;20094;-89
2022/11/29 09:05:02;;;;;;;0.00;0.00;;;;;;;;;;6231566;23;20008;-88
2022/11/29 09:07:28;;;;;;;0.00;0.00;;;;;;;;;;6207371;23;20008;-88
2022/11/29 09:09:54;;;;;;;0.00;0.00;;;;;;;;;;6206479;23;20023;-88
2022/11/29 09:12:21;;;;;;;0.00;0.00;;;;;;;;;;6207056;23;20012;-89
2022/11/29 09:14:47;;;;;;;0.00;0.00;;;;;;;;;;6207758;23;20507;-89
2022/11/29 09:17:13;;;;;;;0.00;0.00;;;;;;;;;;6206220;23;20000;-89
2022/11/29 09:19:39;;;;;;;0.00;0.00;;;;;;;;;;6206006;23;20008;-89
2022/11/29 09:22:05;;;;;;;0.00;0.00;;;;;;;;;;6212559;23;20040;-89
2022/11/29 09:24:32;;;;;;;0.00;0.00;;;;;;;;;;6209651;23;20106;-89
2022/11/29 09:26:59;;;;;;;0.00;0.00;;;;;;;;;;6234683;23;20251;-88
2022/11/29 09:29:25;;;;;;;0.00;0.00;;;;;;;;;;6182648;23;20099;-89
2022/11/29 09:31:51;;;;;;;0.00;0.00;;;;;;;;;;6207727;23;20043;-89
2022/11/29 09:34:17;;;;;;;0.00;0.00;;;;;;;;;;6207954;23;20012;-89
2022/11/29 09:36:44;;;;;;;0.00;0.00;;;;;;;;;;6210360;23;20043;-88
2022/11/29 09:39:11;;;;;;;0.00;0.00;;;;;;;;;;6206888;23;20008;-88
2022/11/29 09:41:56;;;;;;;0.20;0.20;;;;;;;;;;6209464;23;20016;-88
2022/11/29 09:44:28;;;;;;;0.00;0.00;;;;;;;;;;6205776;23;20011;-88
2022/11/29 09:46:54;;;;;;;0.00;0.00;;;;;;;;;;6206291;23;20023;-88
2022/11/29 09:49:23;;;;;;;0.00;0.00;;;;;;;;;;6232923;23;20008;-89
2022/11/29 09:51:56;;;;;;;0.00;0.00;;;;;;;;;;6206618;23;20000;-89
2022/11/29 09:54:29;;;;;;;0.00;0.00;;;;;;;;;;6206045;22;20020;-88
2022/11/29 09:57:04;;;;;;;0.55;0.55;;;;;;;;;;6207857;23;20012;-89
2022/11/29 09:59:43;;;;;;;0.00;0.00;;;;;;;;;;6207287;23;20259;-88
2022/11/29 10:02:16;;;;;;;0.00;0.00;;;;;;;;;;6206299;23;20008;-89
2022/11/29 10:05:03;;;;;;;1.55;1.45;;;;;;;;;;6207750;23;20042;-88
2022/11/29 10:07:43;;;;;;;0.00;0.00;;;;;;;;;;6207184;23;20012;-88
2022/11/29 10:10:20;;;;;;;0.00;0.00;;;;;;;;;;6207747;23;20095;-88
2022/11/29 10:12:48;;;;;;;0.00;0.00;;;;;;;;;;6207247;23;20475;-88
2022/11/29 10:15:28;;;;;;;0.00;0.00;;;;;;;;;;6235565;23;20007;-88
2022/11/29 10:18:01;;;;;;;0.00;0.00;;;;;;;;;;6208899;23;20007;-89
2022/11/29 10:20:32;;;;;;;0.00;0.00;;;;;;;;;;6203446;23;20075;-88
2022/11/29 10:22:58;;;;;;;0.25;0.25;;;;;;;;;;6236090;23;20000;-88
2022/11/29 10:25:30;;;;;;;0.00;0.00;;;;;;;;;;6207159;23;20008;-88
2022/11/29 10:27:56;;;;;;;0.00;0.00;;;;;;;;;;6209614;23;20015;-88
2022/11/29 10:30:22;;;;;;;0.00;0.00;;;;;;;;;;6207403;23;20220;-88
2022/11/29 10:33:11;;;;;;;2.17;1.65;;;;;;;;;;6207065;23;20012;-88
2022/11/29 10:35:37;;;;;;;0.00;0.00;;;;;;;;;;6232580;23;20034;-88
2022/11/29 10:38:03;;;;;;;0.00;0.00;;;;;;;;;;6206323;23;20095;-88
2022/11/29 10:40:32;;;;;;;0.00;0.00;;;;;;;;;;6209489;23;20008;-89
2022/11/29 10:42:58;;;;;;;0.00;0.00;;;;;;;;;;6206720;23;20001;-89
2022/11/29 10:45:27;;;;;;;0.00;0.00;;;;;;;;;;6206898;23;20008;-88
2022/11/29 10:47:54;;;;;;;0.00;0.00;;;;;;;;;;6208446;23;20023;-89
2022/11/29 10:50:23;;;;;;;0.00;0.00;;;;;;;;;;6208169;23;20008;-89
2022/11/29 10:52:49;;;;;;;0.00;0.00;;;;;;;;;;6208462;23;20030;-88
2022/11/29 10:55:16;;;;;;;0.00;0.00;;;;;;;;;;6231882;22;20055;-88
2022/11/29 10:58:06;;;;;;;0.00;0.00;;;;;;;;;;6207375;23;20558;-88
2022/11/29 11:00:42;;;;;;;0.00;0.00;;;;;;;;;;6191743;23;20467;-89
2022/11/29 11:03:08;;;;;;;;;;;;;;;;;;6208530;23;20496;-88
2022/11/29 11:05:34;;;;;;;0.00;0.00;;;;;;;;;;6230640;23;20097;-88
2022/11/29 11:08:04;;;;;;;0.00;0.00;;;;;;;;;;6231808;23;20051;-89
2022/11/29 11:10:30;;;;;;;0.00;0.00;;;;;;;;;;6209617;23;20015;-88
2022/11/29 11:13:07;;;;;;;0.00;0.00;;;;;;;;;;6208267;23;20388;-89
2022/11/29 11:15:33;;;;;;;0.00;0.00;;;;;;;;;;6206105;23;20015;-89
2022/11/29 11:18:02;;;;;;;0.00;0.00;;;;;;;;;;6208071;23;20475;-89
2022/11/29 11:20:30;;;;;;;0.00;0.00;;;;;;;;;;6232891;23;20483;-89
2022/11/29 11:22:57;;;;;;;0.00;0.00;;;;;;;;;;6208102;23;20317;-89
2022/11/29 11:25:29;;;;;;;0.55;0.55;;;;;;;;;;6207781;23;20495;-88
2022/11/29 11:27:56;;;;;;;0.00;0.00;;;;;;;;;;6208085;23;20004;-89
2022/11/29 11:30:27;;;;;;;0.00;0.00;;;;;;;;;;6208103;23;20031;-89
2022/11/29 11:33:12;;;;;;;0.00;0.00;;;;;;;;;;6206595;23;20012;-89
2022/11/29 11:35:38;;;;;;;6.07;2.80;;;;;;;;;;6233385;23;20011;-88
2022/11/29 11:38:04;;;;;;;19.98;6.28;;;;;;;;;;6207518;23;20015;-89
2022/11/29 11:40:30;;;;;;;22.27;7.97;;;;;;;;;;6207693;23;20433;-89
2022/11/29 11:42:58;;;;;;;34.55;9.48;;;;;;;;;;6233642;23;20448;-89
2022/11/29 11:45:35;;;;;;;26.42;9.10;;;;;;;;;;6206697;23;20008;-89
2022/11/29 11:48:12;;;;;;;25.63;9.52;;;;;;;;;;6207463;23;20036;-89
2022/11/29 11:50:58;;;;;;;21.85;8.88;;;;;;;;;;6206134;23;20087;-89
2022/11/29 11:53:27;;;;;;;20.08;8.90;;;;;;;;;;6233840;23;20016;-88
2022/11/29 11:56:00;;;;;;;24.23;9.45;;;;;;;;;;6233972;22;20023;-89
2022/11/29 11:58:31;;;;;;;19.85;9.05;;;;;;;;;;6206605;23;20004;-88
2022/11/29 12:00:59;;;;;;;19.33;8.95;;;;;;;;;;6208129;23;20340;-89
2022/11/29 12:03:28;;;;;;;20.40;9.80;;;;;;;;;;6207875;23;20004;-88
2022/11/29 12:05:57;;;;;;;21.73;9.43;;;;;;;;;;6205386;23;20008;-89
2022/11/29 12:08:23;;;;;;;24.85;9.63;;;;;;;;;;6233721;23;20425;-89
2022/11/29 12:10:52;;;;;;;22.83;9.80;;;;;;;;;;6232747;23;20008;-89
2022/11/29 12:13:21;;;;;;;24.00;9.50;;;;;;;;;;6206909;23;20094;-89
2022/11/29 12:15:48;;;;;;;27.38;10.57;;;;;;;;;;6232052;23;20289;-88
2022/11/29 12:18:26;;;;;;;19.50;8.93;;;;;;;;;;6210722;23;20000;-89
2022/11/29 12:21:11;;;;;;;21.58;9.57;;;;;;;;;;6231229;23;20007;-89
2022/11/29 12:24:13;;;;;;;19.50;9.80;;;;;;;;;;6205455;23;20015;-89
2022/11/29 12:26:41;;;;;;;22.17;10.18;;;;;;;;;;6088814;23;20028;-88
2022/11/29 12:29:14;;;;;;;21.55;10.90;;;;;;;;;;6187371;23;20008;-89
2022/11/29 12:31:59;;;;;;;22.13;9.88;;;;;;;;;;6235669;23;20107;-89
2022/11/29 12:34:35;;;;;;;18.92;9.63;;;;;;;;;;6207795;23;20019;-89
2022/11/29 12:37:01;;;;;;;;;;;;;;;;;;6210242;23;20395;-89
2022/11/29 12:39:33;;;;;;;21.33;9.55;;;;;;;;;;6207158;23;19982;-88
2022/11/29 12:42:02;;;;;;;18.63;9.35;;;;;;;;;;6236322;23;20035;-89
2022/11/29 12:44:41;;;;;;;19.73;9.52;;;;;;;;;;6208821;23;20038;-89
2022/11/29 12:47:26;;;;;;;23.48;10.35;;;;;;;;;;6208869;23;20240;-89
2022/11/29 12:50:07;;;;;;;20.80;9.07;;;;;;;;;;6209863;23;20081;-89
2022/11/29 12:52:39;;;;;;;16.60;7.88;;;;;;;;;;6208270;23;20004;-89
2022/11/29 12:55:21;;;;;;;15.85;8.63;;;;;;;;;;6207124;22;20012;-89
2022/11/29 12:57:55;;;;;;;19.73;8.70;;;;;;;;;;6210570;23;20035;-88
2022/11/29 13:00:21;;;;;;;19.58;8.88;;;;;;;;;;6207769;23;20431;-89
2022/11/29 13:02:47;;;;;;;20.17;9.68;;;;;;;;;;6208256;23;20066;-88
2022/11/29 13:05:25;;;;;;;20.02;8.63;;;;;;;;;;6205741;23;20301;-89
2022/11/29 13:08:09;;;;;;;17.15;9.27;;;;;;;;;;6208654;23;20093;-89
2022/11/29 13:10:54;;;;;;;17.50;9.45;;;;;;;;;;6235154;23;20089;-89
2022/11/29 13:13:29;;;;;;;18.33;9.23;;;;;;;;;;6209538;23;20094;-89
2022/11/29 13:16:04;;;;;;;18.17;10.02;;;;;;;;;;6207006;23;20318;-89
2022/11/29 13:18:33;;;;;;;24.67;9.57;;;;;;;;;;6210339;23;20491;-88
2022/11/29 13:21:03;;;;;;;17.75;9.65;;;;;;;;;;6207941;23;20008;-89
2022/11/29 13:23:32;;;;;;;19.60;9.15;;;;;;;;;;6233541;23;20114;-88
2022/11/29 13:26:00;;;;;;;18.33;10.00;;;;;;;;;;6208676;23;20221;-89
2022/11/29 13:28:31;;;;;;;16.50;8.90;;;;;;;;;;6207318;23;20006;-88
2022/11/29 13:31:07;;;;;;;17.70;9.50;;;;;;;;;;6208276;23;20428;-89
2022/11/29 13:33:40;;;;;;;18.00;9.82;;;;;;;;;;6235167;23;20000;-89
2022/11/29 13:36:11;;;;;;;23.33;10.68;;;;;;;;;;6234254;23;20001;-88
2022/11/29 13:38:43;;;;;;;20.70;10.80;;;;;;;;;;6234518;23;20007;-89
2022/11/29 13:41:18;;;;;;;19.77;10.27;;;;;;;;;;6235789;23;20452;-89
2022/11/29 13:43:54;;;;;;;22.65;11.43;;;;;;;;;;6208154;23;20063;-88
2022/11/29 13:46:20;;;;;;;20.52;10.98;;;;;;;;;;6206480;23;20066;-89
2022/11/29 13:48:47;;;;;;;22.00;10.40;;;;;;;;;;6208232;23;20260;-88
2022/11/29 13:51:22;;;;;;;22.15;10.20;;;;;;;;;;6208177;23;20027;-89
2022/11/29 13:53:48;;;;;;;20.13;10.05;;;;;;;;;;6205692;23;20012;-88
2022/11/29 13:56:47;;;;;;;23.77;10.85;;;;;;;;;;6211763;22;20106;-89
2022/11/29 13:59:18;;;;;;;20.58;9.95;;;;;;;;;;6207923;23;20000;-89
2022/11/29 14:01:45;;;;;;;21.65;10.82;;;;;;;;;;6206164;23;20084;-88
2022/11/29 14:04:14;;;;;;;22.55;10.93;;;;;;;;;;6208895;23;20012;-89
2022/11/29 14:06:40;;;;;;;26.35;10.65;;;;;;;;;;6207433;23;20455;-89
2022/11/29 14:09:13;;;;;;;21.45;10.68;;;;;;;;;;6207852;23;20437;-88
2022/11/29 14:11:42;;;;;;;26.67;11.73;;;;;;;;;;6209311;23;20499;-88
2022/11/29 14:14:28;;;;;;;24.38;12.02;;;;;;;;;;6234165;23;20421;-89
2022/11/29 14:17:01;;;;;;;26.50;11.80;;;;;;;;;;6192626;23;20209;-88
2022/11/29 14:19:37;;;;;;;24.45;10.95;;;;;;;;;;6206315;23;20000;-88
2022/11/29 14:22:05;;;;;;;27.67;12.13;;;;;;;;;;6208295;23;20284;-89
2022/11/29 14:24:34;;;;;;;30.92;11.68;;;;;;;;;;6207983;23;20238;-89
2022/11/29 14:27:06;;;;;;;25.13;12.65;;;;;;;;;;6234961;23;20108;-89
2022/11/29 14:29:53;;;;;;;26.83;11.90;;;;;;;;;;6233215;23;20441;-89
2022/11/29 14:32:23;;;;;;;27.17;12.00;;;;;;;;;;6207724;23;20012;-89
2022/11/29 14:34:55;;;;;;;29.48;12.95;;;;;;;;;;6208351;23;20449;-89
2022/11/29 14:37:50;;;;;;;28.23;13.35;;;;;;;;;;6208423;23;20001;-89
2022/11/29 14:40:26;;;;;;;33.33;12.05;;;;;;;;;;6125540;23;20077;-88
2022/11/29 14:42:52;;;;;;;27.88;12.68;;;;;;;;;;6207443;23;20437;-89
2022/11/29 14:45:26;;;;;;;29.25;13.48;;;;;;;;;;6232383;23;20006;-88
2022/11/29 14:47:52;;;;;;;28.23;13.77;;;;;;;;;;6204308;23;20015;-88
2022/11/29 14:50:29;;;;;;;25.55;11.80;;;;;;;;;;6207088;23;20012;-89
2022/11/29 14:52:55;;;;;;;25.50;12.85;;;;;;;;;;6207789;23;20018;-88
2022/11/29 14:55:24;;;;;;;26.48;12.15;;;;;;;;;;6204863;22;20024;-88
2022/11/29 14:57:50;;;;;;;26.02;12.60;;;;;;;;;;6237726;23;20000;-89
2022/11/29 15:00:18;;;;;;;32.60;14.02;;;;;;;;;;6207446;23;20499;-88
2022/11/29 15:02:47;;;;;;;37.45;13.20;;;;;;;;;;6207527;23;20391;-88
2022/11/29 15:05:21;;;;;;;28.92;13.32;;;;;;;;;;6206389;23;20564;-89
2022/11/29 15:08:06;;;;;;;25.60;12.18;;;;;;;;;;6207275;23;20661;-89
2022/11/29 15:10:35;;;;;;;27.42;12.32;;;;;;;;;;6208374;23;20023;-89